Time;durP1;ratioP1;P1;durP2;ratioP2;P2;SDS_P1;SDS_P2;PMS_P1;PMS_P2;Temp;Humidity;BMP_temperature;BMP_pressure;BME280_temperature;BME280_humidity;BME280_pressure;Samples;Min_cycle;Max_cycle;Signal;HPM_P1;HPM_P2
2023/05/13 00:01:00;;;;;;;24.37;11.57;;;17.40;99.90;;;;;;5020608;28;20235;-70
2023/05/13 00:03:27;;;;;;;27.07;11.83;;;17.30;99.90;;;;;;5041194;28;20214;-70
2023/05/13 00:05:54;;;;;;;19.47;10.60;;;17.20;99.90;;;;;;5022423;28;20809;-70
2023/05/13 00:08:20;;;;;;;30.23;11.97;;;17.30;99.90;;;;;;5029403;28;21133;-70
2023/05/13 00:10:47;;;;;;;25.70;11.00;;;17.30;99.90;;;;;;5024478;28;20187;-70
2023/05/13 00:13:13;;;;;;;25.23;10.90;;;17.30;99.90;;;;;;5024557;28;20663;-70
2023/05/13 00:15:39;;;;;;;25.60;11.70;;;17.20;99.90;;;;;;5018555;28;20192;-70
2023/05/13 00:18:07;;;;;;;22.17;11.17;;;17.20;99.90;;;;;;5017373;28;20872;-70
2023/05/13 00:20:33;;;;;;;24.73;10.83;;;17.20;99.90;;;;;;5017859;28;20239;-70
2023/05/13 00:22:59;;;;;;;27.00;11.30;;;17.20;99.90;;;;;;5021104;28;20246;-70
2023/05/13 00:25:25;;;;;;;28.57;11.30;;;17.20;99.90;;;;;;5018441;28;20176;-70
2023/05/13 00:27:52;;;;;;;24.93;10.93;;;17.20;99.90;;;;;;5020832;28;20191;-70
2023/05/13 00:30:18;;;;;;;24.77;10.60;;;17.10;99.90;;;;;;5002995;28;20651;-70
2023/05/13 00:32:44;;;;;;;27.47;10.83;;;17.10;99.90;;;;;;5020034;28;20566;-70
2023/05/13 00:35:10;;;;;;;26.27;10.67;;;17.10;99.90;;;;;;5014374;28;20189;-70
2023/05/13 00:37:37;;;;;;;25.97;10.23;;;17.10;99.90;;;;;;5017008;28;20247;-71
2023/05/13 00:40:04;;;;;;;24.60;9.90;;;17.10;99.90;;;;;;5020623;28;20171;-70
2023/05/13 00:42:30;;;;;;;28.77;10.57;;;17.00;99.90;;;;;;5024225;28;20764;-70
2023/05/13 00:44:56;;;;;;;20.20;9.73;;;17.10;99.90;;;;;;5020046;28;20188;-70
2023/05/13 00:47:22;;;;;;;20.57;10.10;;;17.10;99.90;;;;;;5013693;28;20539;-70
2023/05/13 00:49:49;;;;;;;26.13;10.03;;;17.20;99.90;;;;;;5022146;28;20183;-70
2023/05/13 00:52:15;;;;;;;20.60;9.90;;;17.20;99.90;;;;;;5019502;28;20211;-70
2023/05/13 00:54:42;;;;;;;25.70;10.03;;;17.10;99.90;;;;;;5017295;28;20189;-70
2023/05/13 00:57:08;;;;;;;22.37;9.80;;;17.10;99.90;;;;;;5014804;28;20279;-70
2023/05/13 00:59:34;;;;;;;23.07;10.10;;;17.00;99.90;;;;;;5042112;28;20368;-70
2023/05/13 01:02:42;;;;;;;26.97;10.47;;;17.00;99.90;;;;;;5043789;28;20724;-70
2023/05/13 01:05:22;;;;;;;29.43;10.63;;;17.10;99.90;;;;;;5008061;28;20666;-70
2023/05/13 01:08:30;;;;;;;21.37;9.67;;;17.10;99.90;;;;;;5043443;28;20198;-70
2023/05/13 01:11:01;;;;;;;19.70;9.43;;;17.10;99.90;;;;;;5012225;28;20188;-70
2023/05/13 01:13:37;;;;;;;24.13;10.63;;;17.20;99.90;;;;;;5015786;28;20199;-70
2023/05/13 01:16:20;;;;;;;27.40;10.23;;;17.20;99.90;;;;;;5016109;28;20196;-70
2023/05/13 01:19:00;;;;;;;28.23;10.47;;;17.20;99.90;;;;;;5032918;28;20234;-70
2023/05/13 01:21:28;;;;;;;25.17;10.50;;;17.10;99.90;;;;;;5040233;28;20559;-70
2023/05/13 01:23:54;;;;;;;31.80;10.83;;;17.10;99.90;;;;;;5022898;28;20750;-70
2023/05/13 01:26:24;;;;;;;24.50;9.83;;;17.10;99.90;;;;;;5019610;28;20191;-70
2023/05/13 01:28:50;;;;;;;23.43;10.73;;;17.10;99.90;;;;;;5022313;28;20282;-70
2023/05/13 01:31:18;;;;;;;26.77;10.90;;;17.20;99.90;;;;;;5012946;28;20267;-70
2023/05/13 01:33:45;;;;;;;23.77;10.07;;;17.10;99.90;;;;;;5021621;28;20778;-70
2023/05/13 01:36:11;;;;;;;25.53;9.37;;;17.00;99.90;;;;;;5015847;28;20753;-70
2023/05/13 01:38:40;;;;;;;25.20;10.10;;;17.00;99.90;;;;;;5018090;28;20188;-70
2023/05/13 01:41:06;;;;;;;20.20;9.33;;;17.00;99.90;;;;;;5014396;28;20302;-70
2023/05/13 01:43:32;;;;;;;32.47;9.77;;;16.90;99.90;;;;;;5023599;28;20191;-70
2023/05/13 01:46:01;;;;;;;28.70;10.37;;;16.80;99.90;;;;;;5012715;28;20314;-71
2023/05/13 01:48:27;;;;;;;20.53;9.13;;;16.70;99.90;;;;;;5015038;28;20741;-71
2023/05/13 01:50:54;;;;;;;23.00;9.47;;;16.70;99.90;;;;;;5015913;28;20188;-71
2023/05/13 01:53:21;;;;;;;21.43;9.53;;;16.60;99.90;;;;;;5017434;28;20673;-70
2023/05/13 01:55:47;;;;;;;27.70;10.23;;;16.60;99.90;;;;;;5013493;28;20961;-70
2023/05/13 01:58:13;;;;;;;23.73;10.30;;;16.50;99.90;;;;;;5026092;28;20667;-70
2023/05/13 02:00:39;;;;;;;32.67;9.80;;;16.50;99.90;;;;;;5009070;28;20376;-71
2023/05/13 02:03:06;;;;;;;23.53;9.80;;;16.50;99.90;;;;;;5010750;28;20778;-71
2023/05/13 02:05:32;;;;;;;22.23;9.57;;;16.50;99.90;;;;;;5014753;28;20195;-71
2023/05/13 02:07:58;;;;;;;30.67;10.47;;;16.40;99.90;;;;;;5026518;28;20985;-71
2023/05/13 02:10:25;;;;;;;23.37;9.70;;;16.40;99.90;;;;;;5016346;28;20686;-71
2023/05/13 02:12:51;;;;;;;23.33;10.20;;;16.40;99.90;;;;;;5025570;28;20221;-71
2023/05/13 02:15:17;;;;;;;30.13;11.00;;;16.40;99.90;;;;;;5014179;28;20295;-70
2023/05/13 02:17:44;;;;;;;25.63;10.33;;;16.40;99.90;;;;;;5038441;28;20659;-70
2023/05/13 02:20:11;;;;;;;19.93;9.67;;;16.40;99.90;;;;;;5018169;28;20199;-71
2023/05/13 02:22:38;;;;;;;25.90;10.03;;;16.40;99.90;;;;;;5010995;28;20211;-70
2023/05/13 02:25:04;;;;;;;27.03;9.63;;;16.40;99.90;;;;;;5014911;28;20194;-70
2023/05/13 02:27:31;;;;;;;19.60;9.80;;;16.40;99.90;;;;;;5009047;28;20212;-70
2023/05/13 02:29:57;;;;;;;24.23;9.80;;;16.30;99.90;;;;;;5039771;28;20196;-70
2023/05/13 02:32:23;;;;;;;21.00;9.67;;;16.30;99.90;;;;;;5038234;28;20216;-71
2023/05/13 02:34:49;;;;;;;24.90;9.77;;;16.30;99.90;;;;;;5008085;28;20276;-70
2023/05/13 02:37:16;;;;;;;25.47;10.80;;;16.30;99.90;;;;;;5008837;28;20207;-70
2023/05/13 02:39:42;;;;;;;26.60;10.37;;;16.30;99.90;;;;;;5014963;28;20348;-71
2023/05/13 02:42:09;;;;;;;23.03;10.10;;;16.40;99.90;;;;;;4993265;28;20196;-71
2023/05/13 02:44:35;;;;;;;25.60;11.20;;;16.30;99.90;;;;;;5014190;28;21074;-71
2023/05/13 02:47:01;;;;;;;21.50;9.63;;;16.40;99.90;;;;;;5036876;28;20322;-71
2023/05/13 02:49:28;;;;;;;23.23;9.43;;;16.40;99.90;;;;;;5013760;28;20676;-70
2023/05/13 02:51:54;;;;;;;21.37;9.57;;;16.40;99.90;;;;;;5014945;28;20303;-70
2023/05/13 02:54:20;;;;;;;21.10;10.47;;;16.30;99.90;;;;;;5014049;28;20905;-71
2023/05/13 02:56:46;;;;;;;27.50;10.27;;;16.20;99.90;;;;;;5023947;28;20555;-71
2023/05/13 02:59:12;;;;;;;23.63;10.37;;;16.20;99.90;;;;;;5015664;28;20932;-70
2023/05/13 03:01:40;;;;;;;18.60;9.27;;;16.10;99.90;;;;;;5021072;28;20195;-70
2023/05/13 03:04:06;;;;;;;22.87;9.27;;;16.10;99.90;;;;;;5029068;28;20193;-70
2023/05/13 03:06:32;;;;;;;25.63;9.50;;;16.10;99.90;;;;;;5038205;28;20871;-70
2023/05/13 03:08:59;;;;;;;25.07;10.60;;;16.20;99.90;;;;;;5021621;28;20271;-71
2023/05/13 03:11:25;;;;;;;27.13;10.13;;;16.20;99.90;;;;;;5044565;28;20227;-70
2023/05/13 03:13:51;;;;;;;26.30;10.60;;;16.10;99.90;;;;;;5011379;28;20597;-71
2023/05/13 03:16:18;;;;;;;22.47;9.13;;;16.10;99.90;;;;;;5028605;28;20189;-70
2023/05/13 03:18:44;;;;;;;22.50;10.10;;;16.10;99.90;;;;;;5020192;28;20186;-70
2023/05/13 03:21:10;;;;;;;29.80;10.97;;;16.10;99.90;;;;;;5017481;28;20224;-70
2023/05/13 03:23:36;;;;;;;24.33;10.63;;;16.10;99.90;;;;;;5015875;28;20196;-70
2023/05/13 03:26:03;;;;;;;23.40;10.50;;;16.10;99.90;;;;;;5017420;28;20472;-71
2023/05/13 03:28:29;;;;;;;19.73;9.40;;;16.10;99.90;;;;;;5036884;28;20199;-70
2023/05/13 03:30:55;;;;;;;28.03;10.53;;;16.20;99.90;;;;;;5015389;28;20547;-71
2023/05/13 03:33:22;;;;;;;21.73;10.53;;;16.20;99.90;;;;;;5042129;28;20246;-70
2023/05/13 03:35:48;;;;;;;22.07;9.60;;;16.20;99.90;;;;;;5029046;28;20192;-71
2023/05/13 03:38:15;;;;;;;23.63;10.93;;;16.20;99.90;;;;;;5020682;28;20251;-70
2023/05/13 03:40:41;;;;;;;25.40;10.03;;;16.20;99.90;;;;;;5012505;28;20246;-71
2023/05/13 03:43:07;;;;;;;21.83;10.67;;;16.20;99.90;;;;;;5014640;28;20199;-70
2023/05/13 03:45:33;;;;;;;20.93;9.37;;;16.20;99.90;;;;;;5018716;28;20616;-70
2023/05/13 03:47:59;;;;;;;29.43;10.93;;;16.10;99.90;;;;;;5044556;28;20658;-71
2023/05/13 03:50:26;;;;;;;23.83;10.43;;;16.10;99.90;;;;;;5010853;28;20284;-71
2023/05/13 03:52:52;;;;;;;19.70;9.90;;;16.10;99.90;;;;;;5015740;28;20209;-70
2023/05/13 03:55:19;;;;;;;22.77;10.40;;;16.10;99.90;;;;;;5011895;28;20177;-70
2023/05/13 03:57:48;;;;;;;25.40;11.00;;;16.10;99.90;;;;;;5015065;28;20742;-70
2023/05/13 04:00:15;;;;;;;25.70;11.47;;;16.10;99.90;;;;;;5014906;28;20220;-70
2023/05/13 04:02:42;;;;;;;19.33;10.77;;;16.20;99.90;;;;;;5014823;28;20224;-70
2023/05/13 04:05:08;;;;;;;24.10;10.60;;;16.30;99.90;;;;;;5004687;28;20212;-70
2023/05/13 04:07:34;;;;;;;23.80;10.43;;;16.30;99.90;;;;;;5013367;28;20192;-70
2023/05/13 04:10:01;;;;;;;22.37;11.03;;;16.30;99.90;;;;;;5032764;28;20551;-70
2023/05/13 04:12:27;;;;;;;25.97;11.37;;;16.30;99.90;;;;;;5015778;28;20225;-70
2023/05/13 04:14:53;;;;;;;23.70;11.47;;;16.40;99.90;;;;;;5031423;28;20185;-70
2023/05/13 04:17:19;;;;;;;23.03;11.63;;;16.40;99.90;;;;;;5015539;28;20599;-71
2023/05/13 04:19:45;;;;;;;29.23;12.43;;;16.50;99.90;;;;;;5009755;28;20313;-70
2023/05/13 04:22:11;;;;;;;24.73;10.90;;;16.50;99.90;;;;;;5019791;28;20701;-70
2023/05/13 04:24:38;;;;;;;23.40;11.27;;;16.50;99.90;;;;;;5014495;28;20201;-70
2023/05/13 05:07:18;;;;;;;30.83;11.93;;;17.20;99.90;;;;;;5107614;27;21261;-79
2023/05/13 05:10:07;;;;;;;27.30;12.00;;;17.40;99.90;;;;;;5083165;28;20247;-82
2023/05/13 05:12:53;;;;;;;26.90;11.97;;;17.50;99.90;;;;;;5076176;28;20544;-80
2023/05/13 05:15:40;;;;;;;33.07;13.37;;;17.60;99.90;;;;;;5078806;28;20186;-78
2023/05/13 05:18:27;;;;;;;34.83;12.70;;;17.60;99.90;;;;;;5081008;28;20407;-80
2023/05/13 05:21:13;;;;;;;25.57;12.27;;;17.60;99.90;;;;;;5081880;28;20186;-79
2023/05/13 05:24:00;;;;;;;28.57;12.77;;;17.70;99.90;;;;;;5062510;28;20197;-79
2023/05/13 05:48:16;;;;;;;24.90;10.73;;;17.80;99.90;;;;;;5120206;27;20570;-78
2023/05/13 05:51:02;;;;;;;25.00;10.77;;;18.30;99.90;;;;;;5097755;28;20188;-80
2023/05/13 05:53:49;;;;;;;21.93;11.07;;;18.50;99.90;;;;;;5084638;28;20189;-76
2023/05/13 05:56:35;;;;;;;25.67;11.47;;;18.60;99.90;;;;;;5098995;28;20181;-75
2023/05/13 05:59:22;;;;;;;26.10;10.93;;;18.70;99.90;;;;;;5083202;28;20208;-76
2023/05/13 06:15:39;;;;;;;26.07;10.07;;;18.60;99.90;;;;;;5096061;27;20533;-79
2023/05/13 06:18:31;;;;;;;27.40;10.53;;;18.80;99.90;;;;;;5061322;28;21100;-79
2023/05/13 06:21:18;;;;;;;21.37;9.40;;;18.80;99.90;;;;;;5088146;28;20210;-78
2023/05/13 06:24:08;;;;;;;27.70;10.83;;;18.80;99.90;;;;;;5073278;28;20224;-77
2023/05/13 06:26:58;;;;;;;25.00;10.60;;;18.90;99.90;;;;;;5040670;28;20195;-79
2023/05/13 06:29:46;;;;;;;26.47;11.23;;;19.10;99.90;;;;;;5056056;28;20190;-80
2023/05/13 06:32:35;;;;;;;20.90;10.03;;;19.10;99.90;;;;;;5062656;28;20295;-79
2023/05/13 06:35:23;;;;;;;23.63;10.50;;;19.20;99.90;;;;;;5081317;28;20607;-80
2023/05/13 06:38:13;;;;;;;28.57;10.07;;;19.20;99.90;;;;;;5081512;28;20524;-79
2023/05/13 06:40:59;;;;;;;36.60;12.73;;;19.20;99.90;;;;;;5063484;28;20217;-83
2023/05/13 06:43:47;;;;;;;26.80;11.37;;;19.30;99.90;;;;;;5074035;28;20225;-77
2023/05/13 06:46:34;;;;;;;31.03;11.50;;;19.40;99.90;;;;;;5059191;28;20729;-78
2023/05/13 06:49:20;;;;;;;25.27;11.00;;;19.40;99.90;;;;;;5063964;28;20202;-75
2023/05/13 06:52:09;;;;;;;28.20;9.53;;;19.40;99.90;;;;;;5094646;28;20190;-78
2023/05/13 06:54:58;;;;;;;26.80;10.73;;;19.50;99.90;;;;;;5067599;28;20278;-78
2023/05/13 06:57:48;;;;;;;32.57;10.87;;;19.80;99.90;;;;;;5067763;28;20190;-78
2023/05/13 07:00:40;;;;;;;24.33;10.57;;;19.70;99.90;;;;;;5061589;28;20272;-78
2023/05/13 07:03:27;;;;;;;31.70;10.47;;;19.70;99.90;;;;;;5071934;28;20178;-78
2023/05/13 07:06:17;;;;;;;21.50;9.63;;;19.70;99.90;;;;;;5077593;28;20217;-81
2023/05/13 07:09:04;;;;;;;25.07;8.77;;;19.80;99.90;;;;;;5068636;28;20186;-78
2023/05/13 07:11:56;;;;;;;27.10;9.37;;;20.00;99.90;;;;;;5087669;28;20197;-79
2023/05/13 07:14:44;;;;;;;22.63;10.30;;;20.10;99.90;;;;;;5078910;28;20275;-80
2023/05/13 07:17:32;;;;;;;29.97;10.43;;;20.20;99.90;;;;;;5081401;28;20190;-79
2023/05/13 07:20:21;;;;;;;27.70;9.83;;;20.30;99.90;;;;;;5065966;28;20182;-77
2023/05/13 07:23:07;;;;;;;16.40;7.43;;;20.40;99.90;;;;;;5073496;28;20220;-78
2023/05/13 07:25:54;;;;;;;18.67;8.30;;;20.30;99.90;;;;;;5054698;28;20191;-75
2023/05/13 07:28:43;;;;;;;17.20;7.90;;;20.40;99.90;;;;;;5066534;28;20209;-81
2023/05/13 07:31:31;;;;;;;16.00;7.40;;;20.40;99.90;;;;;;5062780;28;20214;-80
2023/05/13 07:34:21;;;;;;;18.57;7.67;;;20.50;99.90;;;;;;5069924;28;20259;-79
2023/05/13 07:37:08;;;;;;;18.00;7.13;;;20.50;99.90;;;;;;5079332;28;20201;-79
2023/05/13 07:39:57;;;;;;;17.37;7.30;;;20.70;99.90;;;;;;5077378;28;20182;-78
2023/05/13 07:42:45;;;;;;;21.17;7.40;;;20.80;99.90;;;;;;5038416;28;20190;-79
2023/05/13 07:45:38;;;;;;;22.47;7.47;;;20.90;99.90;;;;;;5074527;28;20271;-84
2023/05/13 07:48:27;;;;;;;14.63;7.13;;;21.00;99.90;;;;;;5059820;28;20721;-80
2023/05/13 07:51:17;;;;;;;21.13;7.27;;;21.10;99.90;;;;;;5049421;28;20237;-81
2023/05/13 07:54:05;;;;;;;20.40;7.90;;;21.00;99.90;;;;;;5049478;28;20204;-81
2023/05/13 07:56:52;;;;;;;22.80;8.17;;;21.00;99.90;;;;;;5041964;28;20245;-84
2023/05/13 07:59:45;;;;;;;19.10;7.10;;;21.10;99.90;;;;;;5057639;28;20184;-78
2023/05/13 08:02:33;;;;;;;23.30;7.53;;;21.10;99.90;;;;;;5063657;28;20191;-78
2023/05/13 08:05:23;;;;;;;17.07;7.53;;;21.20;99.90;;;;;;5054606;28;20190;-78
2023/05/13 08:08:11;;;;;;;14.33;6.90;;;21.20;99.90;;;;;;5046598;28;20268;-82
2023/05/13 08:10:58;;;;;;;15.00;6.53;;;21.30;99.90;;;;;;5078785;28;20685;-77
2023/05/13 08:13:45;;;;;;;17.73;6.93;;;21.40;99.90;;;;;;5057070;28;21054;-78
2023/05/13 08:16:36;;;;;;;13.13;6.60;;;21.40;99.90;;;;;;5045287;28;20186;-83
2023/05/13 08:19:24;;;;;;;13.40;5.87;;;21.50;99.90;;;;;;5064497;28;20190;-79
2023/05/13 08:22:11;;;;;;;13.87;6.27;;;21.60;99.90;;;;;;5055194;28;20191;-80
2023/05/13 08:42:48;;;;;;;11.05;6.25;;;21.90;99.90;;;;;;5096669;27;20943;-73
2023/05/13 08:45:17;;;;;;;12.63;5.80;;;22.60;99.90;;;;;;5092556;27;20201;-72
2023/05/13 08:47:55;;;;;;;11.40;5.78;;;22.60;99.90;;;;;;5075219;28;20755;-71
2023/05/13 08:50:22;;;;;;;9.25;4.55;;;22.60;99.90;;;;;;5093637;28;20193;-71
2023/05/13 08:52:52;;;;;;;12.23;6.07;;;22.70;99.90;;;;;;5091886;28;20281;-71
2023/05/13 08:55:20;;;;;;;14.20;7.20;;;22.80;99.90;;;;;;5094645;28;20193;-71
2023/05/13 08:57:47;;;;;;;13.73;6.53;;;22.90;99.90;;;;;;5093599;28;20194;-72
2023/05/13 09:00:13;;;;;;;14.82;6.60;;;22.90;99.90;;;;;;5095201;28;20218;-72
2023/05/13 09:02:41;;;;;;;8.23;4.07;;;22.90;99.90;;;;;;5094499;28;20186;-72
2023/05/13 09:05:09;;;;;;;9.63;5.13;;;22.90;99.90;;;;;;5093944;28;20830;-72
2023/05/13 09:07:37;;;;;;;14.57;6.23;;;23.00;99.90;;;;;;5089677;28;20555;-72
2023/05/13 09:10:06;;;;;;;13.90;6.35;;;23.20;99.90;;;;;;5074164;28;20194;-71
2023/05/13 09:12:42;;;;;;;14.63;6.10;;;23.20;99.90;;;;;;5092218;28;20194;-73
2023/05/13 09:15:15;;;;;;;14.27;6.22;;;23.20;99.90;;;;;;5091064;28;20196;-73
2023/05/13 09:17:44;;;;;;;14.27;5.32;;;23.20;99.90;;;;;;5092289;28;20186;-73
2023/05/13 09:20:16;;;;;;;18.17;6.07;;;23.30;99.90;;;;;;5091641;28;20661;-73
2023/05/13 09:23:12;;;;;;;10.88;5.50;;;23.40;99.90;;;;;;5090922;28;20218;-73
2023/05/13 09:25:39;;;;;;;13.07;5.60;;;23.50;99.90;;;;;;5075733;28;20202;-72
2023/05/13 09:28:07;;;;;;;12.85;5.30;;;23.60;99.90;;;;;;5107369;27;20205;-73
2023/05/13 09:30:44;;;;;;;15.43;6.75;;;23.60;99.90;;;;;;5095137;28;20354;-73
2023/05/13 09:33:21;;;;;;;14.73;6.25;;;23.70;99.90;;;;;;5093339;28;20220;-73
2023/05/13 09:35:52;;;;;;;20.13;7.03;;;23.90;99.90;;;;;;5090828;28;20986;-73
2023/05/13 09:38:30;;;;;;;10.23;6.80;;;23.80;99.90;;;;;;5091260;28;21089;-73
2023/05/13 09:40:59;;;;;;;11.02;6.20;;;24.00;99.90;;;;;;5090477;28;20213;-73
2023/05/13 09:43:31;;;;;;;18.55;7.45;;;24.10;99.90;;;;;;5079712;28;20252;-73
2023/05/13 09:46:02;;;;;;;17.73;7.50;;;24.10;99.90;;;;;;5077683;28;20808;-73
2023/05/13 09:48:32;;;;;;;12.85;6.40;;;24.10;99.90;;;;;;5076680;28;20190;-73
2023/05/13 09:50:58;;;;;;;12.95;4.88;;;24.20;99.90;;;;;;5062081;28;20186;-73
2023/05/13 09:53:28;;;;;;;10.15;4.60;;;24.00;99.90;;;;;;5061151;28;20827;-73
2023/05/13 09:55:56;;;;;;;15.15;6.30;;;24.10;99.90;;;;;;5063811;28;20186;-73
2023/05/13 09:58:29;;;;;;;8.07;5.57;;;24.20;99.90;;;;;;5082483;28;20201;-73
2023/05/13 10:00:56;;;;;;;14.40;6.15;;;24.30;99.90;;;;;;5057494;28;20295;-72
2023/05/13 10:03:23;;;;;;;12.48;5.82;;;24.40;99.90;;;;;;5078941;28;20233;-73
2023/05/13 10:05:52;;;;;;;15.85;6.43;;;24.40;99.90;;;;;;5078056;28;20222;-73
2023/05/13 10:08:18;;;;;;;13.15;6.35;;;24.50;99.90;;;;;;5077805;28;20645;-73
2023/05/13 10:10:49;;;;;;;14.68;5.68;;;24.50;99.90;;;;;;5078897;28;20220;-73
2023/05/13 10:13:22;;;;;;;11.30;5.88;;;24.50;99.90;;;;;;5075667;28;20202;-73
2023/05/13 10:15:53;;;;;;;10.73;5.38;;;24.50;99.90;;;;;;5076872;28;20178;-73
2023/05/13 10:18:22;;;;;;;11.38;5.65;;;24.50;99.90;;;;;;5073288;28;20186;-73
2023/05/13 10:20:51;;;;;;;14.45;5.80;;;24.50;99.90;;;;;;5078907;28;20271;-73
2023/05/13 10:23:20;;;;;;;18.17;7.05;;;24.50;99.90;;;;;;5074958;28;20178;-73
2023/05/13 10:25:51;;;;;;;13.45;7.35;;;24.60;99.90;;;;;;5074942;28;20190;-73
2023/05/13 10:28:19;;;;;;;21.33;8.57;;;24.60;99.90;;;;;;5079592;28;20190;-73
2023/05/13 10:30:50;;;;;;;17.08;8.07;;;24.50;99.90;;;;;;5079379;28;20201;-73
2023/05/13 10:33:17;;;;;;;18.02;7.05;;;24.50;99.90;;;;;;5062255;28;20239;-73
2023/05/13 10:36:18;;;;;;;18.67;7.53;;;24.50;99.90;;;;;;5075959;28;20216;-73
2023/05/13 10:39:24;;;;;;;11.38;6.68;;;24.50;99.90;;;;;;5059653;28;20233;-72
2023/05/13 10:42:12;;;;;;;16.08;7.22;;;24.50;99.90;;;;;;5076133;28;20285;-72
2023/05/13 10:44:38;;;;;;;12.23;7.05;;;24.50;99.90;;;;;;5079958;28;20808;-72
2023/05/13 10:47:07;;;;;;;16.48;7.63;;;24.30;99.90;;;;;;5078482;28;20182;-72
2023/05/13 10:49:35;;;;;;;19.40;7.68;;;24.30;99.90;;;;;;5079261;28;20203;-72
2023/05/13 10:52:12;;;;;;;11.82;6.53;;;24.30;99.90;;;;;;5063421;28;20544;-72
2023/05/13 10:54:41;;;;;;;16.40;8.18;;;24.40;99.90;;;;;;5092141;28;20700;-72
2023/05/13 10:57:08;;;;;;;14.40;8.60;;;24.30;99.90;;;;;;5081491;28;20699;-72
2023/05/13 10:59:36;;;;;;;16.13;7.32;;;24.30;99.90;;;;;;5078073;28;20310;-72
2023/05/13 11:02:22;;;;;;;17.80;8.07;;;24.30;99.90;;;;;;5080655;28;20228;-72
2023/05/13 11:05:00;;;;;;;20.33;8.15;;;24.30;99.90;;;;;;5077298;28;20178;-72
2023/05/13 11:07:29;;;;;;;17.08;8.13;;;24.30;99.90;;;;;;5078325;28;20205;-72
2023/05/13 11:09:56;;;;;;;17.35;8.10;;;24.30;99.90;;;;;;5076639;28;20289;-72
2023/05/13 11:12:22;;;;;;;22.33;8.95;;;24.30;99.90;;;;;;5076991;28;20271;-72
2023/05/13 11:14:48;;;;;;;18.15;8.32;;;24.20;99.90;;;;;;5078190;28;20277;-72
2023/05/13 11:17:19;;;;;;;20.27;8.45;;;24.20;99.90;;;;;;5079984;28;20224;-72
2023/05/13 11:19:49;;;;;;;15.68;7.90;;;24.10;99.90;;;;;;5077807;28;21930;-72
2023/05/13 11:22:22;;;;;;;14.30;7.07;;;24.10;99.90;;;;;;5073869;28;20229;-72
2023/05/13 11:25:09;;;;;;;16.35;7.32;;;24.10;99.90;;;;;;5077555;28;20189;-72
2023/05/13 11:27:41;;;;;;;16.42;7.13;;;24.10;99.90;;;;;;5073877;28;20273;-72
2023/05/13 11:30:22;;;;;;;12.85;7.40;;;24.00;99.90;;;;;;5081022;28;20201;-72
2023/05/13 11:33:01;;;;;;;12.50;6.47;;;24.10;99.90;;;;;;5058825;28;20297;-72
2023/05/13 11:35:30;;;;;;;19.90;7.78;;;24.10;99.90;;;;;;5073697;28;20194;-72
2023/05/13 11:38:00;;;;;;;16.52;7.13;;;24.00;99.90;;;;;;5077191;28;20194;-72
2023/05/13 11:40:30;;;;;;;12.45;6.88;;;24.00;99.90;;;;;;5076798;28;20890;-72
2023/05/13 11:42:58;;;;;;;15.52;6.93;;;24.00;99.90;;;;;;5076512;28;20190;-72
2023/05/13 11:45:26;;;;;;;13.82;7.60;;;24.10;99.90;;;;;;5092042;28;20243;-72
2023/05/13 11:47:55;;;;;;;19.35;8.02;;;24.10;99.90;;;;;;5073760;28;20194;-72
2023/05/13 11:50:29;;;;;;;16.83;8.05;;;24.10;99.90;;;;;;5074011;28;20185;-72
2023/05/13 11:53:00;;;;;;;15.88;8.40;;;24.10;99.90;;;;;;5075424;28;20828;-72
2023/05/13 11:55:36;;;;;;;15.15;7.80;;;24.20;99.90;;;;;;5076771;28;20699;-72
2023/05/13 11:58:02;;;;;;;16.10;8.27;;;24.10;99.90;;;;;;5077024;28;20607;-72
2023/05/13 12:00:32;;;;;;;22.98;8.98;;;24.10;99.90;;;;;;5079236;28;20317;-72
2023/05/13 12:03:01;;;;;;;18.70;8.70;;;24.20;99.90;;;;;;5059556;28;20182;-72
2023/05/13 12:05:28;;;;;;;14.57;8.10;;;24.20;99.90;;;;;;5061821;28;20220;-72
2023/05/13 12:07:58;;;;;;;16.98;8.48;;;24.30;99.90;;;;;;5077170;28;20327;-72
2023/05/13 12:10:26;;;;;;;19.88;9.05;;;24.30;99.90;;;;;;5079084;28;20190;-72
2023/05/13 12:12:53;;;;;;;16.45;8.50;;;24.20;99.90;;;;;;5075474;28;20545;-72
2023/05/13 12:15:21;;;;;;;14.98;8.32;;;24.20;99.90;;;;;;5075762;28;20181;-72
2023/05/13 12:17:48;;;;;;;18.63;8.23;;;24.30;99.90;;;;;;5077998;28;20194;-72
2023/05/13 12:20:23;;;;;;;14.45;7.07;;;24.10;99.90;;;;;;5093302;27;20335;-72
2023/05/13 12:22:52;;;;;;;13.80;8.40;;;24.20;99.90;;;;;;5093429;28;20185;-72
2023/05/13 12:25:41;;;;;;;19.27;7.68;;;24.20;99.90;;;;;;5077831;28;20182;-72
2023/05/13 12:28:15;;;;;;;16.65;7.38;;;24.20;99.90;;;;;;5075720;28;20828;-72
2023/05/13 12:31:07;;;;;;;14.40;7.55;;;24.20;99.90;;;;;;5093988;28;20197;-72
2023/05/13 12:33:42;;;;;;;10.80;6.40;;;24.20;99.90;;;;;;5076073;28;20210;-72
2023/05/13 12:36:19;;;;;;;14.55;7.25;;;24.20;99.90;;;;;;5074434;28;20258;-72
2023/05/13 12:39:05;;;;;;;12.80;6.70;;;24.10;99.90;;;;;;5076557;28;20196;-72
2023/05/13 12:41:49;;;;;;;9.30;6.38;;;24.00;99.90;;;;;;5077065;28;20209;-72
2023/05/13 12:44:15;;;;;;;13.43;6.43;;;24.00;99.90;;;;;;5077946;28;20197;-73
2023/05/13 12:46:53;;;;;;;16.00;6.88;;;24.00;99.90;;;;;;5074892;28;20284;-73
2023/05/13 12:49:21;;;;;;;15.63;6.82;;;24.10;99.90;;;;;;5075034;28;20275;-73
2023/05/13 12:51:48;;;;;;;18.50;5.80;;;24.10;99.90;;;;;;5072850;28;20218;-73
2023/05/13 12:54:15;;;;;;;9.13;6.43;;;24.10;99.90;;;;;;5075176;28;20197;-73
2023/05/13 12:56:41;;;;;;;15.15;7.00;;;24.10;99.90;;;;;;5075959;28;20195;-73
2023/05/13 12:59:08;;;;;;;11.93;5.97;;;24.10;99.90;;;;;;5078475;28;20667;-73
2023/05/13 13:01:35;;;;;;;11.70;6.43;;;24.00;99.90;;;;;;5075840;28;20340;-73
2023/05/13 13:04:02;;;;;;;11.32;6.68;;;24.10;99.90;;;;;;5074005;28;20182;-73
2023/05/13 13:06:28;;;;;;;16.60;6.82;;;24.00;99.90;;;;;;5076963;28;20225;-73
2023/05/13 13:08:54;;;;;;;13.02;6.45;;;24.00;99.90;;;;;;5057048;28;20190;-73
2023/05/13 13:11:22;;;;;;;11.68;5.97;;;23.90;99.90;;;;;;5076634;28;20198;-73
2023/05/13 13:13:49;;;;;;;13.60;6.40;;;23.80;99.90;;;;;;5075464;28;20831;-73
2023/05/13 13:16:15;;;;;;;11.50;6.10;;;23.80;99.90;;;;;;5076522;28;20210;-73
2023/05/13 13:18:42;;;;;;;14.40;6.30;;;23.70;99.90;;;;;;5080258;28;20413;-73
2023/05/13 13:21:09;;;;;;;10.93;5.97;;;23.70;99.90;;;;;;5064958;28;20206;-73
2023/05/13 13:23:35;;;;;;;16.08;6.47;;;23.60;99.90;;;;;;5081406;28;20194;-73
2023/05/13 13:26:02;;;;;;;15.13;7.93;;;23.50;99.90;;;;;;5081397;28;20197;-73
2023/05/13 13:28:30;;;;;;;18.75;8.88;;;23.60;99.90;;;;;;5081414;28;20186;-73
2023/05/13 13:30:58;;;;;;;18.30;8.63;;;23.70;99.90;;;;;;5080112;28;20182;-73
2023/05/13 13:33:24;;;;;;;13.68;8.23;;;23.70;99.90;;;;;;5093146;28;20194;-73
2023/05/13 13:35:51;;;;;;;13.90;8.10;;;23.70;99.90;;;;;;5080363;28;20833;-73
2023/05/13 13:38:17;;;;;;;16.75;7.75;;;23.60;99.90;;;;;;5076296;28;20194;-73
2023/05/13 13:40:43;;;;;;;15.35;8.10;;;23.60;99.90;;;;;;5078606;28;20758;-73
2023/05/13 13:43:09;;;;;;;16.80;8.27;;;23.60;99.90;;;;;;5078308;28;20201;-72
2023/05/13 13:45:36;;;;;;;17.08;8.77;;;23.50;99.90;;;;;;5080896;28;20692;-71
2023/05/13 13:48:02;;;;;;;14.57;8.18;;;23.60;99.90;;;;;;5083055;28;20675;-70
2023/05/13 13:50:28;;;;;;;20.97;8.43;;;23.60;99.90;;;;;;5079029;28;20194;-70
2023/05/13 13:52:54;;;;;;;15.45;8.43;;;23.60;99.90;;;;;;5080806;28;20568;-70
2023/05/13 13:55:23;;;;;;;16.88;7.80;;;23.40;99.90;;;;;;5081227;28;20194;-70
2023/05/13 13:57:50;;;;;;;17.55;9.50;;;23.40;99.90;;;;;;5078065;28;20246;-71
2023/05/13 14:00:17;;;;;;;15.23;8.18;;;23.40;99.90;;;;;;5076162;28;20328;-71
2023/05/13 14:02:43;;;;;;;10.52;7.35;;;23.30;99.90;;;;;;5077005;28;20189;-71
2023/05/13 14:05:11;;;;;;;14.57;7.77;;;23.20;99.90;;;;;;5080524;28;20221;-72
2023/05/13 14:07:38;;;;;;;16.58;8.63;;;23.20;99.90;;;;;;5080054;28;20194;-72
2023/05/13 14:10:06;;;;;;;18.33;8.52;;;23.10;99.90;;;;;;5095511;27;20212;-72
2023/05/13 14:12:32;;;;;;;24.15;9.10;;;23.10;99.90;;;;;;5078944;28;20728;-72
2023/05/13 14:14:58;;;;;;;18.35;8.98;;;23.10;99.90;;;;;;5079709;28;20309;-72
2023/05/13 14:17:25;;;;;;;13.97;8.53;;;22.90;99.90;;;;;;5097296;27;20190;-72
2023/05/13 14:19:53;;;;;;;17.03;8.43;;;22.90;99.90;;;;;;5080018;28;20198;-72
2023/05/13 14:22:22;;;;;;;18.15;9.05;;;22.90;99.90;;;;;;5080817;28;20229;-72
2023/05/13 14:24:50;;;;;;;17.93;10.83;;;22.80;99.90;;;;;;5061201;28;20201;-71
2023/05/13 14:27:17;;;;;;;21.50;10.70;;;22.80;99.90;;;;;;5060496;28;20186;-72
2023/05/13 14:29:47;;;;;;;19.00;10.03;;;22.70;99.90;;;;;;5076379;28;20197;-72
2023/05/13 14:32:13;;;;;;;22.97;10.03;;;22.70;99.90;;;;;;5078390;28;20194;-72
2023/05/13 14:34:40;;;;;;;18.27;11.52;;;22.60;99.90;;;;;;5078378;28;20210;-72